METAR Data
IDs: Format: Raw Decoded Include TAF

Data at: 1307 UTC 26 Feb 2021

EDFM 261250Z 35012KT 9000 -RA BKN015 OVC021 08/05 Q1031